createdAt,value
2018-12-20T00:01:05.156Z,5.10
2018-12-20T00:03:34.710Z,5.10
2018-12-20T00:06:03.986Z,5.20
2018-12-20T00:08:33.569Z,5.20
2018-12-20T00:11:08.528Z,5.20
2018-12-20T00:16:51.707Z,5.20
2018-12-20T00:22:20.309Z,5.20
2018-12-20T00:24:50.088Z,5.20
2018-12-20T00:27:20.742Z,5.20
2018-12-20T00:29:50.417Z,5.10
2018-12-20T00:32:20.971Z,5.10
2018-12-20T00:34:50.332Z,5.10
2018-12-20T00:37:19.971Z,5.10
2018-12-20T00:39:49.749Z,5.10
2018-12-20T00:42:19.894Z,5.10
2018-12-20T00:44:50.204Z,5.10
2018-12-20T00:50:17.382Z,5.00
2018-12-20T00:52:46.611Z,4.90
2018-12-20T00:55:16.263Z,4.70
2018-12-20T00:57:45.540Z,4.70
2018-12-20T01:00:14.963Z,4.70
2018-12-20T01:02:44.327Z,4.60
2018-12-20T01:05:13.653Z,4.50
2018-12-20T01:07:43.552Z,4.40
2018-12-20T01:10:13.001Z,4.30
2018-12-20T01:12:42.213Z,4.30
2018-12-20T01:15:11.444Z,4.30
2018-12-20T01:17:41.039Z,4.10
2018-12-20T01:20:12.020Z,4.10
2018-12-20T01:22:42.320Z,4.00
2018-12-20T01:25:11.965Z,4.00
2018-12-20T01:27:41.761Z,3.90
2018-12-20T01:35:17.000Z,4.00
2018-12-20T01:37:46.857Z,3.80
2018-12-20T01:40:16.192Z,3.70
2018-12-20T01:42:46.577Z,3.40
2018-12-20T01:45:16.589Z,3.40
2018-12-20T01:47:45.745Z,3.30
2018-12-20T01:50:17.798Z,3.20
2018-12-20T01:55:16.339Z,2.90
2018-12-20T01:57:45.584Z,2.90
2018-12-20T02:00:16.249Z,3.00
2018-12-20T02:02:45.472Z,3.00
2018-12-20T02:05:15.043Z,2.60
2018-12-20T02:07:44.434Z,2.40
2018-12-20T02:10:17.872Z,2.50
2018-12-20T02:12:47.171Z,2.50
2018-12-20T02:15:18.789Z,2.70
2018-12-20T02:17:48.985Z,2.70
2018-12-20T02:20:19.005Z,2.60
2018-12-20T02:25:16.944Z,2.40
2018-12-20T02:27:46.706Z,2.40
2018-12-20T02:30:16.537Z,2.50
2018-12-20T02:32:45.956Z,2.40
2018-12-20T02:35:16.647Z,2.40
2018-12-20T02:37:46.982Z,2.50
2018-12-20T02:40:21.583Z,2.30
2018-12-20T02:42:51.117Z,2.30
2018-12-20T02:47:50.873Z,2.20
2018-12-20T02:50:22.029Z,2.20
2018-12-20T02:52:52.284Z,2.10
2018-12-20T02:55:21.728Z,2.00
2018-12-20T02:57:52.041Z,2.00
2018-12-20T03:00:21.572Z,1.90
2018-12-20T03:02:50.817Z,1.90
2018-12-20T03:05:20.106Z,1.80
2018-12-20T03:07:49.292Z,1.70
2018-12-20T03:10:18.633Z,1.70
2018-12-20T03:12:47.863Z,1.60
2018-12-20T03:15:20.078Z,1.70
2018-12-20T03:17:48.219Z,1.90
2018-12-20T03:20:18.199Z,2.10
2018-12-20T03:22:47.798Z,2.10
2018-12-20T03:25:17.383Z,2.10
2018-12-20T03:27:46.770Z,2.30
2018-12-20T03:30:16.684Z,2.30
2018-12-20T03:32:46.384Z,2.30
2018-12-20T03:35:16.595Z,2.30
2018-12-20T03:37:46.584Z,2.30
2018-12-20T03:40:17.172Z,2.20
2018-12-20T03:42:47.362Z,2.30
2018-12-20T03:45:17.909Z,2.40
2018-12-20T03:47:47.574Z,2.60
2018-12-20T03:50:17.186Z,2.60
2018-12-20T03:52:47.295Z,2.40
2018-12-20T03:55:16.541Z,2.30
2018-12-20T03:57:45.985Z,2.20
2018-12-20T04:00:16.493Z,2.30
2018-12-20T04:05:39.115Z,2.40
2018-12-20T04:08:10.195Z,2.70
2018-12-20T04:10:42.020Z,2.70
2018-12-20T04:13:11.207Z,2.80
2018-12-20T04:15:40.482Z,2.80
2018-12-20T04:18:10.411Z,3.10
2018-12-20T04:20:51.273Z,3.10
2018-12-20T04:26:12.486Z,3.10
2018-12-20T04:28:42.107Z,3.10
2018-12-20T04:31:11.273Z,3.10
2018-12-20T04:33:41.227Z,3.10
2018-12-20T04:36:10.778Z,3.10
2018-12-20T04:38:40.810Z,3.20
2018-12-20T04:41:10.820Z,3.30
2018-12-20T04:43:40.221Z,3.30
2018-12-20T04:46:14.974Z,3.30
2018-12-20T04:48:56.626Z,3.40
2018-12-20T04:51:27.811Z,3.40
2018-12-20T05:05:17.923Z,3.70
2018-12-20T05:10:34.341Z,3.80
2018-12-20T06:25:59.891Z,4.20
2018-12-20T06:28:29.059Z,4.20
2018-12-20T08:17:40.743Z,5.50
2018-12-20T09:20:38.983Z,6.40
2018-12-20T10:33:18.309Z,7.40
2018-12-20T11:15:46.101Z,7.60
2018-12-20T11:18:27.643Z,7.60
2018-12-20T11:26:38.331Z,7.70
2018-12-20T11:34:38.038Z,7.90
2018-12-20T11:39:59.401Z,7.90
2018-12-20T11:45:06.230Z,7.90
2018-12-20T11:47:51.419Z,8.00
2018-12-20T12:09:13.713Z,8.60
2018-12-20T12:11:48.096Z,8.70
2018-12-20T12:17:01.328Z,8.60
2018-12-20T12:40:23.239Z,8.40
2018-12-20T12:48:10.730Z,8.40
2018-12-20T12:58:43.187Z,8.30
2018-12-20T13:11:41.444Z,8.60
2018-12-20T13:14:16.872Z,8.50
2018-12-20T13:16:59.810Z,8.50
2018-12-20T13:19:47.552Z,8.40
2018-12-20T13:25:13.425Z,8.30
2018-12-20T13:28:00.130Z,8.40
2018-12-20T13:48:48.862Z,8.10
2018-12-20T13:59:07.135Z,7.80
